METAR|ÜBERSETZT|TAF
EDHK 251020Z 15009KT CAVOK 20/13 Q1019
Login|Impressum|Kontakt



Anmeldung für Mitglieder

Bitte melden Sie sich an um den internen Bereich zu nutzen.
Benutzername:
Password: